ΕΜΥ, Εθνική Μετεωρολογική Υπηρεσία - Δελτία Καιρού, Προγνώσεις

ΑΕΡΟΝΑΥΤΙΛΙΑ

GREEK AIRPORTS CODES

LGBL 012050Z 00000KT 8000 FEW010 BKN025 OVC070 09/09 Q1008=

EUROPEAN AIRPORTS CODES

LOWW 012120Z 15006KT CAVOK M01/M08 Q1017 NOSIG=